Time;durP1;ratioP1;P1;durP2;ratioP2;P2;SDS_P1;SDS_P2;PMS_P1;PMS_P2;Temp;Humidity;BMP_temperature;BMP_pressure;BME280_temperature;BME280_humidity;BME280_pressure;Samples;Min_cycle;Max_cycle;Signal;HPM_P1;HPM_P2
2021/06/20 00:43:03;;;;;;;16.77;12.60;;;22.30;99.90;;;;;;5112243;27;20366;-71
2021/06/20 00:45:29;;;;;;;17.15;12.50;;;22.70;99.90;;;;;;5093841;28;20027;-70
2021/06/20 00:47:56;;;;;;;14.13;12.38;;;22.70;99.90;;;;;;5094467;28;20096;-70
2021/06/20 00:50:23;;;;;;;16.95;12.63;;;22.60;99.90;;;;;;5094439;28;20028;-74
2021/06/20 00:52:49;;;;;;;17.77;13.27;;;22.60;99.90;;;;;;5096335;28;20021;-71
2021/06/20 00:55:16;;;;;;;16.83;12.40;;;22.50;99.90;;;;;;5095308;28;20038;-71
2021/06/20 00:57:42;;;;;;;16.33;13.30;;;22.40;99.90;;;;;;5095935;28;20023;-72
2021/06/20 01:00:10;;;;;;;17.35;12.55;;;22.20;99.90;;;;;;5096446;28;20493;-71
2021/06/20 01:02:37;;;;;;;15.32;12.18;;;22.00;99.90;;;;;;5096009;28;20024;-71
2021/06/20 01:05:09;;;;;;;15.23;10.90;;;22.10;99.90;;;;;;5096923;28;20019;-71
2021/06/20 01:07:36;;;;;;;13.10;11.02;;;22.20;99.90;;;;;;5096932;28;20060;-75
2021/06/20 01:10:05;;;;;;;16.67;11.13;;;22.30;99.90;;;;;;5096093;28;20034;-73
2021/06/20 01:12:31;;;;;;;16.00;11.25;;;22.30;99.90;;;;;;5096290;28;20032;-74
2021/06/20 01:14:57;;;;;;;15.98;11.70;;;22.40;99.90;;;;;;5094806;28;20116;-71
2021/06/20 01:17:23;;;;;;;18.83;11.32;;;22.50;99.90;;;;;;5096731;28;20024;-75
2021/06/20 01:19:49;;;;;;;14.93;11.57;;;22.50;99.90;;;;;;5096032;28;20512;-74
2021/06/20 01:22:16;;;;;;;12.15;10.07;;;22.60;99.90;;;;;;5097633;28;20019;-71
2021/06/20 01:24:43;;;;;;;11.20;9.73;;;22.60;99.90;;;;;;5097833;28;20021;-75
2021/06/20 01:27:11;;;;;;;14.82;11.32;;;22.80;99.90;;;;;;5096151;28;20100;-70
2021/06/20 01:29:45;;;;;;;18.00;13.20;;;22.80;99.90;;;;;;5096266;28;20024;-71
2021/06/20 01:32:12;;;;;;;18.73;12.55;;;22.70;99.90;;;;;;5094935;28;20008;-71
2021/06/20 01:34:38;;;;;;;12.95;10.55;;;22.60;99.90;;;;;;5093615;28;20098;-75
2021/06/20 01:37:08;;;;;;;16.98;12.30;;;22.70;99.90;;;;;;5097159;28;20108;-74
2021/06/20 01:39:37;;;;;;;17.55;12.40;;;22.70;99.90;;;;;;5097413;28;20052;-74
2021/06/20 01:42:03;;;;;;;14.13;11.25;;;22.40;99.90;;;;;;5105999;28;20079;-71
2021/06/20 01:44:29;;;;;;;13.40;10.85;;;22.30;99.90;;;;;;5102195;28;20032;-71
2021/06/20 01:46:55;;;;;;;16.80;12.15;;;22.30;99.90;;;;;;5101690;28;20031;-74
2021/06/20 01:49:21;;;;;;;16.35;11.48;;;22.20;99.90;;;;;;5103239;28;20035;-75
2021/06/20 01:51:49;;;;;;;14.68;9.20;;;21.90;99.90;;;;;;5103030;28;20036;-71
2021/06/20 01:54:16;;;;;;;16.40;11.30;;;22.10;99.90;;;;;;5102862;28;20035;-73
2021/06/20 01:56:42;;;;;;;13.55;9.88;;;22.20;99.90;;;;;;5102320;28;20024;-71
2021/06/20 01:59:08;;;;;;;13.45;9.80;;;22.30;99.90;;;;;;5101592;28;20424;-71
2021/06/20 02:01:34;;;;;;;11.25;9.75;;;22.20;99.90;;;;;;5102041;28;20024;-73
2021/06/20 02:04:00;;;;;;;11.93;9.38;;;22.10;99.90;;;;;;5101961;28;20024;-75
2021/06/20 02:06:25;;;;;;;11.80;9.18;;;21.90;99.90;;;;;;5102881;28;20019;-72
2021/06/20 02:08:51;;;;;;;14.43;9.70;;;21.90;99.90;;;;;;5100143;28;20028;-71
2021/06/20 02:11:17;;;;;;;11.23;9.75;;;21.90;99.90;;;;;;5102854;28;20146;-71
2021/06/20 02:13:43;;;;;;;14.18;9.32;;;21.90;99.90;;;;;;5101312;28;20020;-70
2021/06/20 02:16:09;;;;;;;12.48;9.52;;;21.50;99.90;;;;;;5101300;28;20015;-71
2021/06/20 02:18:35;;;;;;;14.77;10.77;;;21.50;99.90;;;;;;5101182;28;20024;-75
2021/06/20 02:21:01;;;;;;;16.33;10.73;;;21.30;99.90;;;;;;5101672;28;19996;-74
2021/06/20 02:23:26;;;;;;;13.05;10.60;;;21.40;99.90;;;;;;5100589;28;20031;-74
2021/06/20 02:25:52;;;;;;;13.13;10.43;;;21.60;99.90;;;;;;5101813;28;20024;-70
2021/06/20 02:28:18;;;;;;;13.98;10.60;;;21.60;99.90;;;;;;5101182;28;20031;-72
2021/06/20 02:30:44;;;;;;;15.13;10.85;;;21.70;99.90;;;;;;5101539;28;20032;-75
2021/06/20 02:33:10;;;;;;;15.40;9.70;;;21.80;99.90;;;;;;5101771;28;20044;-71
2021/06/20 02:35:36;;;;;;;13.27;10.02;;;21.80;99.90;;;;;;5101291;28;20412;-74
2021/06/20 02:38:02;;;;;;;13.73;9.65;;;21.70;99.90;;;;;;5102554;28;20031;-71
2021/06/20 02:40:28;;;;;;;14.52;10.52;;;21.70;99.90;;;;;;5100832;28;20070;-71
2021/06/20 02:42:54;;;;;;;14.75;10.98;;;21.60;99.90;;;;;;5100290;28;20028;-70
2021/06/20 02:45:22;;;;;;;18.30;11.70;;;21.40;99.90;;;;;;5100721;28;20062;-72
2021/06/20 02:47:48;;;;;;;17.60;12.15;;;21.20;99.90;;;;;;5099797;28;20016;-74
2021/06/20 02:50:16;;;;;;;15.27;11.40;;;21.10;99.90;;;;;;5099975;28;20022;-72
2021/06/20 02:52:43;;;;;;;15.27;10.75;;;21.00;99.90;;;;;;5100989;28;20020;-75
2021/06/20 02:55:10;;;;;;;14.40;11.50;;;20.90;99.90;;;;;;5098577;28;20021;-73
2021/06/20 02:57:36;;;;;;;17.88;12.00;;;20.90;99.90;;;;;;5099374;28;20024;-75
2021/06/20 03:00:04;;;;;;;14.20;11.52;;;20.90;99.90;;;;;;5099543;28;20024;-71
2021/06/20 03:02:30;;;;;;;17.90;11.13;;;21.00;99.90;;;;;;5100428;28;20016;-76
2021/06/20 03:04:57;;;;;;;19.42;11.05;;;21.20;99.90;;;;;;5100505;28;20035;-71
2021/06/20 03:07:24;;;;;;;16.50;11.65;;;21.00;99.90;;;;;;5100487;28;20047;-76
2021/06/20 03:09:50;;;;;;;16.08;12.07;;;21.10;99.90;;;;;;5100705;28;20008;-76
2021/06/20 03:12:16;;;;;;;14.75;10.75;;;21.00;99.90;;;;;;5098600;28;20031;-72
2021/06/20 03:14:44;;;;;;;16.70;11.20;;;21.10;99.90;;;;;;5098764;28;20021;-74
2021/06/20 03:17:11;;;;;;;15.02;11.40;;;21.20;99.90;;;;;;5100604;28;20023;-75
2021/06/20 03:19:38;;;;;;;14.82;12.45;;;21.10;99.90;;;;;;5100087;28;20535;-72
2021/06/20 03:22:05;;;;;;;15.68;12.55;;;21.10;99.90;;;;;;5100463;28;20542;-75
2021/06/20 03:24:38;;;;;;;20.15;13.60;;;20.80;99.90;;;;;;5101308;28;20028;-70
2021/06/20 03:27:05;;;;;;;17.40;14.47;;;20.90;99.90;;;;;;5099491;28;20024;-75
2021/06/20 03:29:31;;;;;;;19.85;13.68;;;20.90;99.90;;;;;;5099735;28;20482;-75
2021/06/20 03:31:57;;;;;;;22.48;16.30;;;21.00;99.90;;;;;;5101065;28;20042;-71
2021/06/20 03:34:23;;;;;;;23.60;16.65;;;20.80;99.90;;;;;;5098618;28;20016;-70
2021/06/20 03:36:49;;;;;;;23.08;17.45;;;20.80;99.90;;;;;;5099195;28;20381;-74
2021/06/20 03:39:15;;;;;;;24.73;18.35;;;20.90;99.90;;;;;;5098966;28;20031;-73
2021/06/20 03:41:43;;;;;;;23.98;18.23;;;20.80;99.90;;;;;;5099861;28;20044;-75
2021/06/20 03:44:09;;;;;;;20.98;17.23;;;20.80;99.90;;;;;;5099935;28;20024;-71
2021/06/20 03:46:36;;;;;;;22.15;16.73;;;20.70;99.90;;;;;;5100512;28;20081;-75
2021/06/20 03:49:02;;;;;;;20.63;16.48;;;20.90;99.90;;;;;;5098439;28;20096;-71
2021/06/20 03:51:28;;;;;;;21.02;15.63;;;21.10;99.90;;;;;;5099184;28;20020;-71
2021/06/20 03:53:54;;;;;;;22.70;16.02;;;21.20;99.90;;;;;;5099363;28;20075;-71
2021/06/20 03:56:20;;;;;;;18.63;16.52;;;21.20;99.90;;;;;;5100760;28;20542;-74
2021/06/20 03:58:46;;;;;;;21.35;16.75;;;21.30;99.90;;;;;;5100083;28;20024;-74
2021/06/20 04:01:12;;;;;;;21.50;18.40;;;21.40;99.90;;;;;;5099278;28;20462;-71
2021/06/20 04:03:38;;;;;;;26.42;19.02;;;21.50;99.90;;;;;;5097671;28;20069;-72
2021/06/20 04:06:04;;;;;;;24.05;17.40;;;21.60;99.90;;;;;;5099441;28;20020;-71
2021/06/20 04:08:30;;;;;;;23.88;18.35;;;21.70;99.90;;;;;;5099578;28;20111;-75
2021/06/20 04:10:56;;;;;;;17.27;14.60;;;21.80;99.90;;;;;;5099071;28;20422;-75
2021/06/20 04:13:22;;;;;;;15.07;12.57;;;21.90;99.90;;;;;;5097707;28;20466;-72
2021/06/20 04:15:48;;;;;;;20.40;16.27;;;22.10;99.90;;;;;;5098663;28;20031;-73
2021/06/20 04:18:14;;;;;;;23.48;16.02;;;22.10;99.90;;;;;;5099760;28;20020;-71
2021/06/20 04:20:40;;;;;;;21.63;15.18;;;22.10;99.90;;;;;;5098785;28;20023;-76
2021/06/20 04:23:06;;;;;;;20.60;15.30;;;22.10;99.90;;;;;;5097984;28;20253;-71
2021/06/20 04:25:33;;;;;;;22.42;13.50;;;22.10;99.90;;;;;;5098912;28;20012;-75
2021/06/20 04:27:59;;;;;;;16.10;14.23;;;22.20;99.90;;;;;;5099172;28;20064;-75
2021/06/20 04:30:25;;;;;;;16.77;13.98;;;22.20;99.90;;;;;;5099225;28;20369;-73
2021/06/20 04:32:52;;;;;;;17.83;13.73;;;22.20;99.90;;;;;;5100492;28;20031;-71
2021/06/20 04:35:20;;;;;;;17.92;12.25;;;22.20;99.90;;;;;;5100041;28;20016;-71
2021/06/20 04:37:47;;;;;;;16.00;14.15;;;22.40;99.90;;;;;;5101058;28;20112;-75
2021/06/20 04:40:20;;;;;;;16.00;13.82;;;22.30;99.90;;;;;;5100331;28;20024;-72
2021/06/20 04:42:54;;;;;;;15.00;13.40;;;22.40;99.90;;;;;;5096747;28;20052;-71
2021/06/20 04:45:21;;;;;;;14.48;12.82;;;22.50;99.90;;;;;;5099665;28;20024;-72
2021/06/20 04:47:47;;;;;;;16.83;13.85;;;22.50;99.90;;;;;;5099929;28;20037;-72
2021/06/20 04:50:13;;;;;;;19.27;14.55;;;22.50;99.90;;;;;;5097552;28;20064;-72
2021/06/20 04:52:41;;;;;;;16.42;12.93;;;22.50;99.90;;;;;;5099236;28;20035;-75
2021/06/20 04:55:11;;;;;;;20.05;14.35;;;22.60;99.90;;;;;;5098522;28;20457;-71
2021/06/20 04:57:38;;;;;;;17.02;14.10;;;22.60;99.90;;;;;;5099910;28;20049;-71
2021/06/20 05:00:07;;;;;;;16.80;12.65;;;22.60;99.90;;;;;;5100076;28;20493;-74
2021/06/20 05:02:33;;;;;;;15.63;13.85;;;22.70;99.90;;;;;;5097561;28;20039;-70
2021/06/20 05:04:59;;;;;;;17.77;12.65;;;22.70;99.90;;;;;;5100185;28;20016;-71
2021/06/20 05:07:25;;;;;;;14.85;11.98;;;22.90;99.90;;;;;;5101299;28;20440;-74
2021/06/20 05:09:51;;;;;;;15.60;13.27;;;22.90;99.90;;;;;;5098690;28;20020;-71
2021/06/20 05:12:17;;;;;;;15.35;11.57;;;23.00;99.90;;;;;;5096432;28;20032;-71
2021/06/20 05:14:45;;;;;;;14.63;11.38;;;23.10;99.90;;;;;;5098270;28;20099;-75
2021/06/20 05:17:13;;;;;;;18.02;14.55;;;23.10;99.90;;;;;;5099277;28;20024;-71
2021/06/20 05:19:40;;;;;;;18.92;12.90;;;23.10;99.90;;;;;;5101944;28;20024;-70
2021/06/20 05:22:07;;;;;;;14.25;11.73;;;23.30;99.90;;;;;;5104614;28;20053;-72
2021/06/20 05:24:33;;;;;;;20.83;10.52;;;23.40;99.90;;;;;;5102532;28;20393;-72
2021/06/20 05:26:59;;;;;;;12.05;10.85;;;23.40;99.90;;;;;;5104255;28;20020;-74
2021/06/20 05:29:25;;;;;;;14.25;10.43;;;;;;;;;;5104047;28;20020;-70
2021/06/20 05:31:51;;;;;;;12.70;11.40;;;23.60;99.90;;;;;;5103464;28;20020;-74
2021/06/20 05:34:17;;;;;;;14.25;11.48;;;23.60;99.90;;;;;;5102309;28;20024;-71
2021/06/20 05:36:44;;;;;;;12.32;10.30;;;23.70;99.90;;;;;;5101743;28;20023;-73
2021/06/20 05:39:10;;;;;;;12.55;10.40;;;23.50;99.90;;;;;;5100323;28;20031;-71
2021/06/20 05:41:36;;;;;;;11.60;10.13;;;23.50;99.90;;;;;;5099323;28;20145;-72
2021/06/20 05:44:02;;;;;;;12.45;10.25;;;23.70;99.90;;;;;;5102344;28;20370;-76
2021/06/20 05:46:30;;;;;;;11.25;9.48;;;23.90;99.90;;;;;;5102173;28;20427;-76
2021/06/20 05:48:56;;;;;;;15.15;11.00;;;23.90;99.90;;;;;;5099716;28;20030;-70
2021/06/20 05:51:22;;;;;;;11.77;8.98;;;23.70;99.90;;;;;;5101433;28;20035;-72
2021/06/20 05:53:48;;;;;;;10.52;9.00;;;24.00;99.90;;;;;;5102454;28;20077;-71
2021/06/20 05:56:15;;;;;;;13.65;9.68;;;24.20;99.90;;;;;;5101930;28;20016;-71
2021/06/20 05:58:41;;;;;;;11.88;9.65;;;24.40;99.90;;;;;;5103946;28;20035;-73
2021/06/20 06:01:07;;;;;;;13.63;9.93;;;24.40;99.90;;;;;;5099678;28;20012;-70
2021/06/20 06:03:34;;;;;;;14.27;11.90;;;24.70;99.90;;;;;;5099641;28;20017;-70
2021/06/20 06:06:01;;;;;;;11.02;9.32;;;25.00;99.90;;;;;;5098300;28;20027;-75
2021/06/20 06:08:27;;;;;;;11.23;8.90;;;24.70;99.90;;;;;;5100199;28;20557;-72
2021/06/20 06:10:53;;;;;;;10.73;8.32;;;25.00;99.90;;;;;;5100615;28;20027;-71
2021/06/20 06:13:19;;;;;;;14.50;9.50;;;25.20;99.90;;;;;;5100595;28;20020;-75
2021/06/20 06:15:45;;;;;;;11.85;8.43;;;25.20;99.90;;;;;;5101794;28;20462;-73
2021/06/20 06:18:11;;;;;;;11.63;8.65;;;25.50;99.90;;;;;;5101464;28;20076;-74
2021/06/20 06:20:37;;;;;;;9.55;8.50;;;25.60;99.90;;;;;;5100643;28;20115;-75
2021/06/20 06:23:03;;;;;;;12.77;9.23;;;25.70;99.90;;;;;;5102481;28;20105;-76
2021/06/20 06:25:29;;;;;;;9.30;7.68;;;25.90;99.90;;;;;;5099563;28;20107;-73
2021/06/20 06:27:55;;;;;;;12.18;8.25;;;26.00;99.90;;;;;;5100192;28;20024;-73
2021/06/20 06:30:22;;;;;;;12.75;10.43;;;26.20;99.90;;;;;;5090475;28;20020;-70
2021/06/20 06:32:49;;;;;;;14.63;10.68;;;26.00;99.90;;;;;;5084357;28;20028;-71
2021/06/20 06:35:15;;;;;;;12.05;10.57;;;26.10;99.90;;;;;;5083446;28;20030;-72
2021/06/20 06:37:42;;;;;;;13.40;9.40;;;26.10;99.90;;;;;;5086639;28;20028;-72
2021/06/20 06:40:10;;;;;;;9.35;8.23;;;26.20;99.90;;;;;;5083533;28;20066;-70
2021/06/20 06:42:37;;;;;;;10.43;7.90;;;26.20;99.90;;;;;;5083932;28;20048;-71
2021/06/20 06:45:04;;;;;;;8.13;7.03;;;26.30;99.90;;;;;;5085367;28;20497;-71
2021/06/20 06:47:32;;;;;;;12.23;7.07;;;26.50;99.90;;;;;;5083627;28;20099;-70
2021/06/20 06:49:58;;;;;;;7.63;6.50;;;26.60;99.90;;;;;;5082179;28;20378;-71
2021/06/20 06:52:23;;;;;;;12.15;7.90;;;26.70;99.90;;;;;;5084255;28;20031;-71
2021/06/20 06:54:52;;;;;;;10.43;7.43;;;26.60;99.90;;;;;;5083670;28;20422;-70
2021/06/20 06:57:19;;;;;;;9.57;7.05;;;26.80;99.90;;;;;;5080128;28;20051;-71
2021/06/20 06:59:45;;;;;;;9.35;7.60;;;27.10;99.80;;;;;;5078537;28;20099;-74
2021/06/20 07:02:11;;;;;;;12.50;8.95;;;27.20;99.10;;;;;;5079464;28;20027;-71
2021/06/20 07:04:37;;;;;;;8.40;7.57;;;27.00;99.90;;;;;;5078816;28;20092;-71
2021/06/20 07:07:03;;;;;;;12.88;7.35;;;27.30;97.90;;;;;;5078787;28;20055;-73
2021/06/20 07:09:29;;;;;;;9.82;7.50;;;27.40;98.50;;;;;;5079480;28;20000;-71
2021/06/20 07:11:55;;;;;;;8.02;6.90;;;27.50;97.50;;;;;;5080382;28;20107;-73
2021/06/20 07:14:21;;;;;;;12.32;7.60;;;27.80;98.00;;;;;;5079299;28;20067;-71
2021/06/20 07:16:47;;;;;;;10.23;7.60;;;28.10;98.40;;;;;;5077688;28;20025;-70
2021/06/20 07:19:13;;;;;;;10.75;7.93;;;28.10;96.90;;;;;;5078299;28;20028;-73
2021/06/20 07:21:39;;;;;;;10.35;7.65;;;28.10;96.10;;;;;;5076248;28;20020;-70
2021/06/20 07:24:06;;;;;;;8.95;7.80;;;28.20;97.00;;;;;;5079714;28;20021;-73
2021/06/20 07:26:32;;;;;;;8.07;7.22;;;28.00;96.10;;;;;;5078391;28;20021;-71
2021/06/20 07:28:58;;;;;;;10.95;7.95;;;28.40;98.00;;;;;;5080043;28;20103;-71
2021/06/20 07:31:24;;;;;;;8.77;6.22;;;28.40;96.50;;;;;;5080239;28;20493;-73
2021/06/20 07:33:50;;;;;;;8.70;6.05;;;28.70;96.80;;;;;;5077441;28;20142;-71
2021/06/20 07:36:16;;;;;;;8.80;6.05;;;28.90;97.50;;;;;;5072062;28;20498;-71
2021/06/20 07:38:45;;;;;;;11.98;7.32;;;29.10;96.40;;;;;;5070660;28;20025;-70
2021/06/20 07:41:12;;;;;;;9.18;6.32;;;28.80;95.90;;;;;;5070097;28;20127;-70
2021/06/20 07:43:38;;;;;;;10.38;6.47;;;29.10;95.60;;;;;;5072189;28;20070;-71
2021/06/20 07:46:04;;;;;;;9.02;6.60;;;29.10;95.30;;;;;;5071988;28;20557;-70
2021/06/20 07:48:31;;;;;;;10.02;5.95;;;28.90;94.60;;;;;;5072105;28;20032;-70
2021/06/20 07:50:57;;;;;;;11.25;6.97;;;29.10;95.30;;;;;;5078323;28;20386;-71
2021/06/20 07:53:23;;;;;;;8.77;5.88;;;29.20;95.00;;;;;;5080193;28;20016;-73
2021/06/20 07:55:50;;;;;;;7.20;5.70;;;29.20;94.70;;;;;;5081674;28;20060;-72
2021/06/20 07:58:16;;;;;;;7.68;5.70;;;29.30;95.30;;;;;;5079688;28;20028;-73
2021/06/20 08:00:43;;;;;;;6.13;5.53;;;29.10;94.10;;;;;;5078747;28;20486;-71
2021/06/20 08:03:09;;;;;;;6.13;5.10;;;29.40;94.60;;;;;;5079010;28;20024;-71
2021/06/20 08:05:35;;;;;;;9.50;4.82;;;29.50;94.10;;;;;;5080129;28;20123;-72
2021/06/20 08:08:02;;;;;;;6.53;4.53;;;29.30;92.80;;;;;;5079493;28;20029;-71
2021/06/20 08:10:29;;;;;;;6.80;4.50;;;29.70;95.50;;;;;;5077849;28;20020;-73
2021/06/20 08:12:55;;;;;;;6.60;4.40;;;30.10;96.20;;;;;;5079205;28;20028;-74
2021/06/20 08:15:21;;;;;;;9.35;4.93;;;30.10;93.40;;;;;;5078158;28;20493;-70
2021/06/20 08:17:47;;;;;;;7.68;4.65;;;30.30;91.80;;;;;;5076536;28;20031;-75
2021/06/20 08:20:14;;;;;;;5.47;4.43;;;30.20;91.70;;;;;;5077060;28;20020;-74
2021/06/20 08:22:41;;;;;;;7.82;4.10;;;30.40;91.90;;;;;;5078413;28;20462;-75
2021/06/20 08:25:09;;;;;;;8.93;4.00;;;30.50;93.40;;;;;;5078588;28;20024;-74
2021/06/20 08:27:36;;;;;;;5.85;4.18;;;30.70;92.30;;;;;;5077639;28;20020;-70
2021/06/20 08:30:04;;;;;;;4.50;3.92;;;30.50;90.10;;;;;;5076367;28;20025;-70
2021/06/20 08:32:30;;;;;;;6.15;4.05;;;30.70;92.50;;;;;;5078776;28;20090;-74
2021/06/20 08:35:00;;;;;;;4.78;4.20;;;31.00;92.00;;;;;;5077124;28;20032;-73
2021/06/20 08:37:29;;;;;;;4.70;3.80;;;31.10;90.20;;;;;;5075341;28;20016;-71
2021/06/20 08:39:56;;;;;;;5.25;3.78;;;31.30;90.90;;;;;;5079686;28;20020;-71
2021/06/20 08:42:23;;;;;;;5.22;3.75;;;31.30;90.40;;;;;;5080894;28;20055;-69
2021/06/20 08:44:49;;;;;;;5.65;3.95;;;31.30;89.90;;;;;;5080091;28;20369;-70
2021/06/20 08:47:17;;;;;;;5.60;3.80;;;31.40;90.20;;;;;;5073491;28;20474;-71
2021/06/20 08:49:45;;;;;;;5.72;3.67;;;31.40;90.70;;;;;;5081063;28;20028;-71
2021/06/20 08:52:11;;;;;;;7.43;3.60;;;31.10;89.00;;;;;;5076879;28;20482;-72
2021/06/20 08:55:00;;;;;;;6.35;3.58;;;31.50;89.10;;;;;;5085659;28;20028;-70
2021/06/20 08:57:28;;;;;;;4.18;3.00;;;31.50;86.80;;;;;;5086472;28;20028;-70
2021/06/20 08:59:56;;;;;;;4.53;3.30;;;31.60;86.60;;;;;;5088234;28;20016;-71
2021/06/20 09:02:29;;;;;;;4.43;3.22;;;31.40;85.50;;;;;;5084668;28;20100;-70
2021/06/20 09:04:57;;;;;;;4.57;3.53;;;31.70;87.70;;;;;;5104558;28;20089;-75
2021/06/20 09:07:31;;;;;;;4.60;3.00;;;31.80;86.30;;;;;;5102207;28;20028;-70
2021/06/20 09:10:09;;;;;;;4.28;3.30;;;31.80;87.30;;;;;;5101519;28;20044;-71
2021/06/20 09:12:52;;;;;;;4.80;3.60;;;31.80;85.90;;;;;;5093350;28;20032;-75
2021/06/20 09:15:24;;;;;;;4.03;3.10;;;31.90;84.10;;;;;;5101793;28;20495;-72
2021/06/20 09:18:10;;;;;;;4.72;3.13;;;32.20;85.10;;;;;;5103819;28;20024;-73
2021/06/20 09:20:44;;;;;;;4.53;3.13;;;32.60;86.10;;;;;;5098414;28;20115;-71
2021/06/20 09:23:16;;;;;;;6.40;3.00;;;32.80;84.00;;;;;;5099023;28;20029;-71
2021/06/20 09:25:44;;;;;;;3.65;2.97;;;32.80;83.10;;;;;;5097794;28;20031;-72
2021/06/20 09:28:11;;;;;;;3.38;2.72;;;33.00;82.40;;;;;;5102858;28;20028;-71
2021/06/20 09:30:50;;;;;;;3.88;2.72;;;33.00;84.40;;;;;;5102963;28;20077;-72
2021/06/20 09:33:16;;;;;;;5.93;3.03;;;32.40;76.50;;;;;;5102522;28;20028;-73
2021/06/20 09:35:52;;;;;;;6.22;3.10;;;32.70;82.00;;;;;;5098023;28;20027;-73
2021/06/20 09:38:38;;;;;;;6.13;3.20;;;32.60;81.50;;;;;;5100457;28;20020;-72
2021/06/20 09:41:14;;;;;;;6.20;3.22;;;33.00;82.90;;;;;;5100646;28;20128;-75
2021/06/20 09:43:55;;;;;;;6.10;3.33;;;33.40;84.00;;;;;;5092204;28;20085;-73
2021/06/20 09:46:21;;;;;;;5.00;3.22;;;33.40;81.60;;;;;;5087556;28;20141;-73
2021/06/20 09:48:48;;;;;;;5.22;3.30;;;33.00;85.20;;;;;;5085901;28;20016;-75
2021/06/20 09:51:20;;;;;;;4.53;3.00;;;33.10;82.40;;;;;;5085324;28;20020;-76
2021/06/20 09:53:48;;;;;;;4.35;3.20;;;33.50;81.40;;;;;;5082442;28;20093;-73
2021/06/20 09:56:21;;;;;;;5.53;3.25;;;33.60;80.20;;;;;;5081767;28;20029;-77
2021/06/20 09:58:55;;;;;;;;;;;33.60;78.60;;;;;;5096849;28;20040;-74
2021/06/20 10:01:22;;;;;;;5.80;3.47;;;33.20;77.30;;;;;;5101725;28;19962;-73
2021/06/20 10:03:48;;;;;;;4.32;3.30;;;33.00;77.70;;;;;;5102039;28;20024;-74
2021/06/20 10:06:15;;;;;;;3.30;3.00;;;32.80;74.50;;;;;;5100599;28;20024;-74
2021/06/20 10:08:42;;;;;;;4.78;2.88;;;32.90;77.60;;;;;;5101042;28;20470;-73
2021/06/20 10:11:10;;;;;;;3.83;2.50;;;33.00;77.20;;;;;;5100952;28;20024;-72
2021/06/20 10:13:36;;;;;;;4.38;2.80;;;33.40;76.30;;;;;;5097564;28;20043;-75
2021/06/20 10:16:38;;;;;;;3.30;2.85;;;33.10;76.20;;;;;;5102973;28;20016;-72
2021/06/20 10:19:16;;;;;;;6.85;2.88;;;33.00;74.20;;;;;;5090161;28;20060;-71
2021/06/20 10:21:58;;;;;;;3.35;2.40;;;33.10;76.00;;;;;;5089545;28;20474;-72
2021/06/20 10:24:24;;;;;;;5.10;2.97;;;33.00;72.60;;;;;;5084447;28;20075;-73
2021/06/20 10:27:03;;;;;;;5.07;2.60;;;33.30;76.80;;;;;;5081500;28;20074;-73
2021/06/20 10:29:38;;;;;;;3.45;2.60;;;33.10;75.20;;;;;;5079468;28;20036;-73
2021/06/20 10:32:15;;;;;;;5.15;2.80;;;;;;;;;;5082853;28;20052;-71
2021/06/20 10:34:57;;;;;;;5.15;2.70;;;33.10;73.10;;;;;;5080280;28;20103;-73
2021/06/20 10:37:25;;;;;;;4.13;2.72;;;33.40;75.60;;;;;;5080052;28;20469;-72
2021/06/20 10:39:54;;;;;;;4.53;2.70;;;33.50;75.10;;;;;;5080419;28;20024;-73
2021/06/20 10:42:31;;;;;;;3.30;2.63;;;34.00;75.90;;;;;;5081275;28;20056;-72
2021/06/20 10:44:57;;;;;;;2.75;2.38;;;34.20;73.70;;;;;;5077938;28;20409;-72
2021/06/20 10:47:33;;;;;;;5.32;2.47;;;34.20;73.60;;;;;;5082386;28;20028;-75
2021/06/20 10:50:05;;;;;;;3.47;2.78;;;34.40;75.80;;;;;;5080435;28;20074;-73
2021/06/20 10:52:31;;;;;;;4.55;2.67;;;34.30;73.20;;;;;;5080146;28;20119;-72
2021/06/20 10:55:07;;;;;;;4.78;2.38;;;34.70;74.80;;;;;;5080886;28;20082;-74
2021/06/20 10:57:51;;;;;;;3.60;2.50;;;34.70;69.70;;;;;;5079959;28;20074;-75
2021/06/20 11:00:27;;;;;;;4.63;2.33;;;34.80;72.90;;;;;;5080963;28;20543;-73
2021/06/20 11:02:56;;;;;;;3.45;2.40;;;34.40;67.20;;;;;;5079224;28;20028;-73
2021/06/20 11:05:24;;;;;;;3.50;2.28;;;34.70;70.10;;;;;;5079795;28;20029;-74
2021/06/20 11:08:05;;;;;;;3.38;2.47;;;34.80;70.90;;;;;;5080473;28;20424;-74
2021/06/20 11:10:31;;;;;;;3.40;2.60;;;35.00;71.60;;;;;;5077203;28;20063;-72
2021/06/20 11:12:57;;;;;;;4.32;2.42;;;35.20;71.40;;;;;;5078086;28;20350;-73
2021/06/20 11:15:28;;;;;;;4.82;2.65;;;35.00;72.40;;;;;;5079820;28;20013;-73
2021/06/20 11:18:10;;;;;;;4.28;3.47;;;35.40;72.40;;;;;;5079087;28;20107;-74
2021/06/20 11:20:38;;;;;;;3.08;2.30;;;35.60;70.30;;;;;;5081562;28;20024;-75
2021/06/20 11:23:05;;;;;;;4.25;2.20;;;35.60;69.40;;;;;;5085706;28;20063;-75
2021/06/20 11:25:31;;;;;;;3.03;2.08;;;35.10;66.60;;;;;;5082445;28;20011;-75
2021/06/20 11:27:58;;;;;;;2.90;2.05;;;35.50;70.30;;;;;;5083801;28;20025;-75
2021/06/20 11:30:24;;;;;;;3.47;2.15;;;35.50;69.30;;;;;;5084156;28;20048;-75
2021/06/20 11:32:50;;;;;;;4.10;2.15;;;35.40;67.00;;;;;;5081378;28;20056;-75
2021/06/20 11:35:17;;;;;;;4.75;1.90;;;35.50;69.10;;;;;;5081615;28;20024;-73
2021/06/20 11:37:44;;;;;;;3.25;1.98;;;35.70;63.70;;;;;;5077916;28;20093;-75
2021/06/20 11:40:18;;;;;;;5.43;2.00;;;35.70;65.40;;;;;;5082275;28;20009;-72
2021/06/20 11:42:52;;;;;;;2.75;1.67;;;35.60;64.60;;;;;;5082476;28;20036;-73
2021/06/20 11:45:24;;;;;;;12.95;2.78;;;35.70;63.90;;;;;;5077251;28;20020;-70
2021/06/20 11:47:52;;;;;;;3.28;1.90;;;35.90;65.40;;;;;;5079178;28;20027;-73
2021/06/20 11:50:26;;;;;;;7.07;2.05;;;35.90;65.80;;;;;;5079644;28;20021;-72
2021/06/20 11:53:02;;;;;;;3.55;2.00;;;36.00;65.30;;;;;;5076638;28;20032;-75
2021/06/20 11:55:33;;;;;;;2.88;1.98;;;35.10;63.50;;;;;;5082064;28;20032;-74
2021/06/20 11:58:06;;;;;;;3.30;2.08;;;35.70;65.00;;;;;;5081364;28;20028;-75
2021/06/20 12:00:34;;;;;;;3.63;2.10;;;35.60;63.40;;;;;;5082642;28;20008;-72
2021/06/20 12:03:04;;;;;;;3.70;2.20;;;35.80;64.60;;;;;;5082839;28;20013;-73
2021/06/20 12:05:31;;;;;;;3.55;2.10;;;36.00;67.30;;;;;;5081611;28;20493;-75
2021/06/20 12:07:59;;;;;;;2.75;2.10;;;36.10;66.40;;;;;;5081003;28;20108;-74
2021/06/20 12:10:25;;;;;;;2.70;1.88;;;36.20;64.20;;;;;;5079230;28;20016;-69
2021/06/20 12:13:03;;;;;;;2.75;1.88;;;36.10;62.80;;;;;;5079542;28;20032;-71
2021/06/20 12:15:31;;;;;;;2.83;2.17;;;36.20;63.80;;;;;;5084319;28;20021;-72
2021/06/20 12:17:57;;;;;;;10.15;2.15;;;36.20;62.10;;;;;;5083640;28;20078;-72
2021/06/20 12:20:36;;;;;;;5.13;2.08;;;36.30;64.30;;;;;;5082837;28;20022;-73
2021/06/20 12:23:03;;;;;;;3.78;1.85;;;36.30;64.30;;;;;;5088456;28;20040;-73
2021/06/20 12:25:41;;;;;;;2.90;1.90;;;36.20;64.10;;;;;;5100131;28;20004;-76
2021/06/20 12:28:16;;;;;;;3.55;2.55;;;36.30;63.10;;;;;;5101986;28;20021;-75
2021/06/20 12:30:43;;;;;;;4.30;2.17;;;36.30;62.90;;;;;;5082348;28;20328;-73
2021/06/20 12:33:12;;;;;;;6.13;2.40;;;36.30;63.60;;;;;;5083506;28;20099;-71
2021/06/20 12:35:39;;;;;;;4.20;2.10;;;36.40;62.50;;;;;;5080954;28;20024;-73
2021/06/20 12:38:19;;;;;;;2.78;2.00;;;36.30;62.60;;;;;;5082609;28;20027;-71
2021/06/20 12:40:48;;;;;;;3.65;2.20;;;36.30;61.50;;;;;;5082233;28;20473;-71
2021/06/20 12:43:19;;;;;;;3.50;2.03;;;36.30;63.10;;;;;;5085875;28;20031;-72
2021/06/20 12:46:01;;;;;;;3.70;2.17;;;36.20;62.90;;;;;;5103209;28;20446;-75
2021/06/20 12:48:35;;;;;;;7.72;5.15;;;36.20;61.90;;;;;;5100930;28;20482;-73
2021/06/20 12:51:01;;;;;;;36.45;20.33;;;36.30;64.50;;;;;;5102284;28;20024;-75
2021/06/20 12:53:32;;;;;;;19.15;12.82;;;36.40;62.70;;;;;;5102120;28;20385;-72
2021/06/20 12:56:04;;;;;;;17.02;11.70;;;36.40;62.20;;;;;;5101307;28;20016;-72
2021/06/20 12:58:31;;;;;;;20.75;13.73;;;36.20;60.10;;;;;;5099683;28;20028;-75
2021/06/20 13:00:58;;;;;;;10.00;6.60;;;36.30;62.30;;;;;;5100566;28;20047;-72
2021/06/20 13:03:25;;;;;;;3.35;2.67;;;36.20;59.50;;;;;;5098277;28;20481;-73
2021/06/20 13:05:51;;;;;;;6.93;3.60;;;35.50;57.70;;;;;;5096442;28;20035;-71
2021/06/20 13:08:17;;;;;;;4.43;3.22;;;35.60;62.30;;;;;;5099806;28;20031;-71
2021/06/20 13:10:45;;;;;;;8.57;3.17;;;35.80;64.40;;;;;;5096000;28;20370;-73
2021/06/20 13:13:13;;;;;;;3.17;2.13;;;36.00;63.80;;;;;;5099420;28;20098;-73
2021/06/20 13:15:39;;;;;;;2.95;2.10;;;35.70;61.80;;;;;;5086275;28;20024;-73
2021/06/20 13:18:06;;;;;;;3.63;2.28;;;35.50;59.40;;;;;;5083280;28;20569;-72
2021/06/20 13:20:33;;;;;;;4.68;2.50;;;35.60;63.00;;;;;;5086048;28;20429;-72
2021/06/20 13:23:03;;;;;;;2.92;2.22;;;35.70;60.40;;;;;;5100116;28;20016;-74
2021/06/20 13:25:29;;;;;;;3.38;2.40;;;35.50;59.70;;;;;;5093913;28;20092;-73